Harvest Peace — V7VE7 — position and weather

sailwx.info

Track history (hours):
 
Tides and Currents Weather Stations Pressure Air Temp Water Temp Dewpoint Dewpoint Depression Visibility Wind Speed Wind Dir Waves Ship Positions

Harvest Peace

Last reported at 2016-Aug-29 02:26 UTC. Time now 2016-Aug-30 07:24 UTC.
Position S 35°10' W 056°19'.

Length 225 m; draft 10.3 m.

Type: Cargo ship. MMSI: 538004103.

Date/timePositionNaut miles runAvg speedWind from/ knotsBaromVisibWave heightAir tempDewpointWater temp
2016-Aug-29 02:26S 35°10' W 056°19'67 5.2
2016-Aug-28 13:34S 34°46' W 057°34'1010.3
2016-Aug-28 12:34S 34°44' W 057°47'9 8.8
2016-Aug-28 11:33S 34°41' W 057°57'1111.0
2016-Aug-28 10:33S 34°37' W 058°10'  
2016-Aug-23 14:33S 34°10' W 058°14'1111.3
2016-Aug-23 13:33S 34°16' W 058°03'1211.9
2016-Aug-23 12:34S 34°27' W 057°57'1212.0
2016-Aug-23 11:33S 34°39' W 057°58'10 9.5
2016-Aug-23 10:33S 34°44' W 057°48'6 6.2
2016-Aug-23 09:33S 34°44' W 057°41'2411.8
2016-Aug-23 07:33S 34°57' W 057°16'1413.6
2016-Aug-23 06:32S 35°07' W 057°05'1312.8
2016-Aug-23 05:29S 35°10' W 056°49'1213.3
2016-Aug-23 04:33S 35°10' W 056°34'1313.0
2016-Aug-23 03:33S 35°10' W 056°18'  
Track history (hours):
 
Tides and Currents Weather Stations Pressure Air Temp Water Temp Dewpoint Dewpoint Depression Visibility Wind Speed Wind Dir Waves Ship Positions

Harvest Peace

Last reported at 2016-Aug-29 02:26 UTC. Time now 2016-Aug-30 07:24 UTC.
Position S 35°10' W 056°19'.

Length 225 m; draft 10.3 m.

Type: Cargo ship. MMSI: 538004103.

Date/timePositionNaut miles runAvg speedWind from/ knotsBaromVisibWave heightAir tempDewpointWater temp
2016-Aug-29 02:26S 35°10' W 056°19'67 5.2
2016-Aug-28 13:34S 34°46' W 057°34'1010.3
2016-Aug-28 12:34S 34°44' W 057°47'9 8.8
2016-Aug-28 11:33S 34°41' W 057°57'1111.0
2016-Aug-28 10:33S 34°37' W 058°10'  
2016-Aug-23 14:33S 34°10' W 058°14'1111.3
2016-Aug-23 13:33S 34°16' W 058°03'1211.9
2016-Aug-23 12:34S 34°27' W 057°57'1212.0
2016-Aug-23 11:33S 34°39' W 057°58'10 9.5
2016-Aug-23 10:33S 34°44' W 057°48'6 6.2
2016-Aug-23 09:33S 34°44' W 057°41'2411.8
2016-Aug-23 07:33S 34°57' W 057°16'1413.6
2016-Aug-23 06:32S 35°07' W 057°05'1312.8
2016-Aug-23 05:29S 35°10' W 056°49'1213.3
2016-Aug-23 04:33S 35°10' W 056°34'1313.0
2016-Aug-23 03:33S 35°10' W 056°18'  

Dump ship's entire track history